sensor_id;sensor_type;location;lat;lon;timestamp;pressure;altitude;pressure_sealevel;temperature;humidity
57990;BME280;58373;51.824;5.564;2023-02-03T00:02:17;102377.78;;;6.91;100.00
57990;BME280;58373;51.824;5.564;2023-02-03T00:04:43;102363.59;;;6.81;100.00
57990;BME280;58373;51.824;5.564;2023-02-03T00:07:10;102340.13;;;6.67;100.00
57990;BME280;58373;51.824;5.564;2023-02-03T00:09:36;102382.03;;;6.92;100.00
57990;BME280;58373;51.824;5.564;2023-02-03T00:12:01;102376.22;;;6.87;100.00
57990;BME280;58373;51.824;5.564;2023-02-03T00:14:27;102389.03;;;6.90;100.00
57990;BME280;58373;51.824;5.564;2023-02-03T00:16:52;102358.09;;;6.69;100.00
57990;BME280;58373;51.824;5.564;2023-02-03T00:19:17;102363.34;;;6.67;100.00
57990;BME280;58373;51.824;5.564;2023-02-03T00:21:43;102406.16;;;6.91;100.00
57990;BME280;58373;51.824;5.564;2023-02-03T00:24:08;102369.91;;;6.74;100.00
57990;BME280;58373;51.824;5.564;2023-02-03T00:26:33;102417.13;;;6.97;100.00
57990;BME280;58373;51.824;5.564;2023-02-03T00:28:59;102417.13;;;6.97;100.00
57990;BME280;58373;51.824;5.564;2023-02-03T00:31:24;102415.41;;;6.97;100.00
57990;BME280;58373;51.824;5.564;2023-02-03T00:33:54;102412.88;;;6.96;100.00
57990;BME280;58373;51.824;5.564;2023-02-03T00:36:20;102393.78;;;6.79;100.00
57990;BME280;58373;51.824;5.564;2023-02-03T00:38:46;102397.78;;;6.86;100.00
57990;BME280;58373;51.824;5.564;2023-02-03T00:41:13;102416.22;;;6.98;100.00
57990;BME280;58373;51.824;5.564;2023-02-03T00:43:38;102395.34;;;6.83;100.00
57990;BME280;58373;51.824;5.564;2023-02-03T00:46:03;102395.34;;;6.83;100.00
57990;BME280;58373;51.824;5.564;2023-02-03T00:48:29;102424.81;;;6.98;100.00
57990;BME280;58373;51.824;5.564;2023-02-03T00:50:54;102398.78;;;6.82;100.00
57990;BME280;58373;51.824;5.564;2023-02-03T00:53:19;102412.22;;;6.90;100.00
57990;BME280;58373;51.824;5.564;2023-02-03T00:55:45;102429.84;;;7.01;100.00
57990;BME280;58373;51.824;5.564;2023-02-03T00:58:10;102424.16;;;6.93;100.00
57990;BME280;58373;51.824;5.564;2023-02-03T01:00:35;102417.38;;;6.90;100.00
57990;BME280;58373;51.824;5.564;2023-02-03T01:03:01;102410.81;;;6.83;100.00
57990;BME280;58373;51.824;5.564;2023-02-03T01:05:26;102423.88;;;7.01;100.00
57990;BME280;58373;51.824;5.564;2023-02-03T01:07:51;102430.81;;;6.99;100.00
57990;BME280;58373;51.824;5.564;2023-02-03T01:10:17;102406.50;;;6.84;100.00
57990;BME280;58373;51.824;5.564;2023-02-03T01:12:42;102388.09;;;6.71;100.00
57990;BME280;58373;51.824;5.564;2023-02-03T01:15:08;102411.25;;;6.93;100.00
57990;BME280;58373;51.824;5.564;2023-02-03T01:17:33;102419.41;;;7.04;100.00
57990;BME280;58373;51.824;5.564;2023-02-03T01:19:58;102394.19;;;6.90;100.00
57990;BME280;58373;51.824;5.564;2023-02-03T01:22:24;102403.34;;;6.98;100.00
57990;BME280;58373;51.824;5.564;2023-02-03T01:24:49;102404.91;;;7.02;100.00
57990;BME280;58373;51.824;5.564;2023-02-03T01:27:14;102383.22;;;6.85;100.00
57990;BME280;58373;51.824;5.564;2023-02-03T01:29:40;102382.97;;;6.91;100.00
57990;BME280;58373;51.824;5.564;2023-02-03T01:32:05;102386.19;;;6.97;100.00
57990;BME280;58373;51.824;5.564;2023-02-03T01:34:30;102384.25;;;7.02;100.00
57990;BME280;58373;51.824;5.564;2023-02-03T01:36:56;102367.63;;;6.88;100.00
57990;BME280;58373;51.824;5.564;2023-02-03T01:39:21;102370.53;;;7.01;100.00
57990;BME280;58373;51.824;5.564;2023-02-03T01:41:47;102389.88;;;7.11;100.00
57990;BME280;58373;51.824;5.564;2023-02-03T01:44:37;102381.91;;;7.16;100.00
57990;BME280;58373;51.824;5.564;2023-02-03T01:47:04;102364.00;;;6.92;100.00
57990;BME280;58373;51.824;5.564;2023-02-03T01:49:34;102372.13;;;7.04;100.00
57990;BME280;58373;51.824;5.564;2023-02-03T01:52:00;102349.44;;;6.91;100.00
57990;BME280;58373;51.824;5.564;2023-02-03T01:54:32;102339.25;;;6.88;100.00
57990;BME280;58373;51.824;5.564;2023-02-03T01:57:09;102359.59;;;7.15;100.00
57990;BME280;58373;51.824;5.564;2023-02-03T01:59:36;102326.78;;;6.98;100.00
57990;BME280;58373;51.824;5.564;2023-02-03T02:02:02;102327.56;;;7.00;100.00
57990;BME280;58373;51.824;5.564;2023-02-03T02:04:35;102346.22;;;7.07;100.00
57990;BME280;58373;51.824;5.564;2023-02-03T02:07:05;102377.03;;;7.10;100.00
57990;BME280;58373;51.824;5.564;2023-02-03T02:09:31;102338.09;;;6.96;100.00
57990;BME280;58373;51.824;5.564;2023-02-03T02:11:56;102327.88;;;6.92;100.00
57990;BME280;58373;51.824;5.564;2023-02-03T02:14:22;102363.94;;;7.14;100.00
57990;BME280;58373;51.824;5.564;2023-02-03T02:16:53;102362.38;;;7.10;100.00
57990;BME280;58373;51.824;5.564;2023-02-03T02:27:20;102345.94;;;7.13;100.00
57990;BME280;58373;51.824;5.564;2023-02-03T02:32:29;102359.34;;;7.21;100.00
57990;BME280;58373;51.824;5.564;2023-02-03T02:35:06;102310.88;;;6.88;100.00
57990;BME280;58373;51.824;5.564;2023-02-03T02:37:47;102356.75;;;7.21;100.00
57990;BME280;58373;51.824;5.564;2023-02-03T02:43:19;102368.00;;;7.20;100.00
57990;BME280;58373;51.824;5.564;2023-02-03T02:45:48;102342.97;;;7.02;100.00
57990;BME280;58373;51.824;5.564;2023-02-03T02:48:21;102341.31;;;7.01;100.00
57990;BME280;58373;51.824;5.564;2023-02-03T02:50:49;102369.81;;;7.18;100.00
57990;BME280;58373;51.824;5.564;2023-02-03T02:53:19;102317.72;;;6.89;100.00
57990;BME280;58373;51.824;5.564;2023-02-03T02:55:46;102370.72;;;7.17;100.00
57990;BME280;58373;51.824;5.564;2023-02-03T02:58:13;102352.28;;;7.06;100.00
57990;BME280;58373;51.824;5.564;2023-02-03T03:00:40;102320.94;;;6.95;100.00
57990;BME280;58373;51.824;5.564;2023-02-03T03:03:20;102350.97;;;7.16;100.00
57990;BME280;58373;51.824;5.564;2023-02-03T03:05:57;102350.84;;;7.19;100.00
57990;BME280;58373;51.824;5.564;2023-02-03T03:08:34;102344.91;;;7.17;100.00
57990;BME280;58373;51.824;5.564;2023-02-03T03:11:01;102296.53;;;7.02;100.00
57990;BME280;58373;51.824;5.564;2023-02-03T03:13:33;102303.75;;;7.14;100.00
57990;BME280;58373;51.824;5.564;2023-02-03T03:16:00;102288.94;;;6.99;100.00
57990;BME280;58373;51.824;5.564;2023-02-03T03:18:36;102280.44;;;6.97;100.00
57990;BME280;58373;51.824;5.564;2023-02-03T03:21:04;102282.94;;;6.98;100.00
57990;BME280;58373;51.824;5.564;2023-02-03T03:23:34;102309.69;;;7.16;100.00
57990;BME280;58373;51.824;5.564;2023-02-03T03:26:08;102268.06;;;6.84;100.00
57990;BME280;58373;51.824;5.564;2023-02-03T03:28:48;102302.34;;;7.07;100.00
57990;BME280;58373;51.824;5.564;2023-02-03T03:31:15;102300.03;;;7.01;100.00
57990;BME280;58373;51.824;5.564;2023-02-03T03:33:42;102333.41;;;7.24;100.00
57990;BME280;58373;51.824;5.564;2023-02-03T03:36:29;102308.69;;;7.00;100.00
57990;BME280;58373;51.824;5.564;2023-02-03T03:39:03;102352.41;;;7.23;100.00
57990;BME280;58373;51.824;5.564;2023-02-03T03:44:14;102334.72;;;7.14;100.00
57990;BME280;58373;51.824;5.564;2023-02-03T03:46:49;102306.97;;;6.99;100.00
57990;BME280;58373;51.824;5.564;2023-02-03T03:49:17;102313.69;;;7.03;100.00
57990;BME280;58373;51.824;5.564;2023-02-03T03:51:52;102282.44;;;6.90;100.00
57990;BME280;58373;51.824;5.564;2023-02-03T03:54:21;102316.19;;;7.04;100.00
57990;BME280;58373;51.824;5.564;2023-02-03T03:56:57;102337.59;;;7.27;100.00
57990;BME280;58373;51.824;5.564;2023-02-03T03:59:27;102310.09;;;7.07;100.00
57990;BME280;58373;51.824;5.564;2023-02-03T04:01:53;102315.38;;;7.04;100.00
57990;BME280;58373;51.824;5.564;2023-02-03T04:04:19;102367.63;;;7.29;100.00
57990;BME280;58373;51.824;5.564;2023-02-03T04:06:45;102355.84;;;7.22;100.00
57990;BME280;58373;51.824;5.564;2023-02-03T04:09:10;102377.94;;;7.29;100.00
57990;BME280;58373;51.824;5.564;2023-02-03T04:11:35;102329.06;;;7.06;100.00
57990;BME280;58373;51.824;5.564;2023-02-03T04:14:20;102366.19;;;7.22;100.00
57990;BME280;58373;51.824;5.564;2023-02-03T04:16:45;102332.53;;;7.05;100.00
57990;BME280;58373;51.824;5.564;2023-02-03T04:19:10;102307.13;;;6.96;100.00
57990;BME280;58373;51.824;5.564;2023-02-03T04:21:36;102342.34;;;7.17;100.00
57990;BME280;58373;51.824;5.564;2023-02-03T04:24:01;102367.88;;;7.23;100.00
57990;BME280;58373;51.824;5.564;2023-02-03T04:26:26;102333.31;;;7.07;100.00
57990;BME280;58373;51.824;5.564;2023-02-03T04:28:52;102366.19;;;7.22;100.00
57990;BME280;58373;51.824;5.564;2023-02-03T04:31:17;102362.13;;;7.16;100.00
57990;BME280;58373;51.824;5.564;2023-02-03T04:33:42;102319.00;;;7.00;100.00
57990;BME280;58373;51.824;5.564;2023-02-03T04:36:08;102326.41;;;7.07;100.00
57990;BME280;58373;51.824;5.564;2023-02-03T04:38:34;102370.97;;;7.31;100.00
57990;BME280;58373;51.824;5.564;2023-02-03T04:40:59;102337.03;;;7.20;100.00
57990;BME280;58373;51.824;5.564;2023-02-03T04:43:25;102338.69;;;7.21;100.00
57990;BME280;58373;51.824;5.564;2023-02-03T04:45:50;102343.59;;;7.27;100.00
57990;BME280;58373;51.824;5.564;2023-02-03T04:48:15;102348.63;;;7.30;100.00
57990;BME280;58373;51.824;5.564;2023-02-03T04:50:41;102341.09;;;7.26;100.00
57990;BME280;58373;51.824;5.564;2023-02-03T04:53:06;102314.78;;;7.17;100.00
57990;BME280;58373;51.824;5.564;2023-02-03T04:55:32;102318.31;;;7.15;100.00
57990;BME280;58373;51.824;5.564;2023-02-03T04:57:58;102313.44;;;7.09;100.00
57990;BME280;58373;51.824;5.564;2023-02-03T05:00:25;102350.31;;;7.31;100.00
57990;BME280;58373;51.824;5.564;2023-02-03T05:02:51;102296.94;;;6.92;100.00
57990;BME280;58373;51.824;5.564;2023-02-03T05:05:16;102339.97;;;7.31;100.00
57990;BME280;58373;51.824;5.564;2023-02-03T05:07:42;102318.13;;;7.19;100.00
57990;BME280;58373;51.824;5.564;2023-02-03T05:10:07;102300.72;;;7.04;100.00
57990;BME280;58373;51.824;5.564;2023-02-03T05:12:33;102335.94;;;7.26;100.00
57990;BME280;58373;51.824;5.564;2023-02-03T05:14:58;102313.16;;;7.15;100.00
57990;BME280;58373;51.824;5.564;2023-02-03T05:17:26;102327.47;;;7.22;100.00
57990;BME280;58373;51.824;5.564;2023-02-03T05:19:51;102321.81;;;7.14;100.00
57990;BME280;58373;51.824;5.564;2023-02-03T05:22:17;102328.91;;;7.09;100.00
57990;BME280;58373;51.824;5.564;2023-02-03T05:24:42;102339.50;;;7.23;100.00
57990;BME280;58373;51.824;5.564;2023-02-03T05:27:07;102303.53;;;7.00;100.00
57990;BME280;58373;51.824;5.564;2023-02-03T05:29:33;102310.22;;;7.04;100.00
57990;BME280;58373;51.824;5.564;2023-02-03T05:31:58;102320.25;;;7.10;100.00
57990;BME280;58373;51.824;5.564;2023-02-03T05:34:23;102301.72;;;7.02;100.00
57990;BME280;58373;51.824;5.564;2023-02-03T05:36:49;102347.25;;;7.23;100.00
57990;BME280;58373;51.824;5.564;2023-02-03T05:39:14;102310.34;;;7.01;100.00
57990;BME280;58373;51.824;5.564;2023-02-03T05:41:39;102340.78;;;7.13;100.00
57990;BME280;58373;51.824;5.564;2023-02-03T05:44:21;102340.06;;;7.09;100.00
57990;BME280;58373;51.824;5.564;2023-02-03T05:46:47;102329.09;;;7.04;100.00
57990;BME280;58373;51.824;5.564;2023-02-03T05:49:13;102352.78;;;7.14;100.00
57990;BME280;58373;51.824;5.564;2023-02-03T05:51:39;102362.84;;;7.20;100.00
57990;BME280;58373;51.824;5.564;2023-02-03T05:54:05;102345.94;;;7.13;100.00
57990;BME280;58373;51.824;5.564;2023-02-03T05:56:31;102337.56;;;7.08;100.00
57990;BME280;58373;51.824;5.564;2023-02-03T05:58:56;102324.66;;;7.08;100.00
57990;BME280;58373;51.824;5.564;2023-02-03T06:01:21;102308.91;;;6.93;100.00
57990;BME280;58373;51.824;5.564;2023-02-03T06:03:47;102302.09;;;6.92;100.00
57990;BME280;58373;51.824;5.564;2023-02-03T06:06:13;102319.75;;;7.02;100.00
57990;BME280;58373;51.824;5.564;2023-02-03T06:08:38;102324.66;;;7.08;100.00
57990;BME280;58373;51.824;5.564;2023-02-03T06:11:03;102351.88;;;7.15;100.00
57990;BME280;58373;51.824;5.564;2023-02-03T06:13:29;102321.81;;;7.14;100.00
57990;BME280;58373;51.824;5.564;2023-02-03T06:15:54;102338.28;;;7.11;100.00
57990;BME280;58373;51.824;5.564;2023-02-03T06:18:20;102303.91;;;6.90;100.00
57990;BME280;58373;51.824;5.564;2023-02-03T06:20:46;102308.91;;;6.93;100.00
57990;BME280;58373;51.824;5.564;2023-02-03T06:23:11;102315.56;;;6.99;100.00
57990;BME280;58373;51.824;5.564;2023-02-03T06:25:36;102303.00;;;6.91;100.00
57990;BME280;58373;51.824;5.564;2023-02-03T06:28:02;102348.84;;;7.05;100.00
57990;BME280;58373;51.824;5.564;2023-02-03T06:30:27;102314.34;;;6.87;100.00
57990;BME280;58373;51.824;5.564;2023-02-03T06:32:53;102340.25;;;7.05;100.00
57990;BME280;58373;51.824;5.564;2023-02-03T06:35:18;102364.19;;;7.08;100.00
57990;BME280;58373;51.824;5.564;2023-02-03T06:37:44;102322.72;;;6.92;100.00
57990;BME280;58373;51.824;5.564;2023-02-03T06:40:10;102327.78;;;6.96;100.00
57990;BME280;58373;51.824;5.564;2023-02-03T06:42:36;102314.47;;;6.84;100.00
57990;BME280;58373;51.824;5.564;2023-02-03T06:45:02;102312.56;;;6.89;100.00
57990;BME280;58373;51.824;5.564;2023-02-03T06:47:27;102298.09;;;6.85;100.00
57990;BME280;58373;51.824;5.564;2023-02-03T06:49:52;102323.69;;;6.90;100.00
57990;BME280;58373;51.824;5.564;2023-02-03T06:52:18;102351.06;;;6.94;100.00
57990;BME280;58373;51.824;5.564;2023-02-03T06:54:43;102350.34;;;6.90;100.00
57990;BME280;58373;51.824;5.564;2023-02-03T06:57:09;102355.59;;;6.87;100.00
57990;BME280;58373;51.824;5.564;2023-02-03T06:59:34;102375.34;;;7.09;100.00
57990;BME280;58373;51.824;5.564;2023-02-03T07:01:59;102368.78;;;7.02;100.00
57990;BME280;58373;51.824;5.564;2023-02-03T07:04:24;102374.69;;;7.04;100.00
57990;BME280;58373;51.824;5.564;2023-02-03T07:06:54;102375.53;;;7.04;100.00
57990;BME280;58373;51.824;5.564;2023-02-03T07:09:19;102353.81;;;6.89;100.00
57990;BME280;58373;51.824;5.564;2023-02-03T07:11:45;102358.72;;;6.96;100.00
57990;BME280;58373;51.824;5.564;2023-02-03T07:14:10;102351.88;;;6.95;100.00
57990;BME280;58373;51.824;5.564;2023-02-03T07:16:35;102368.91;;;6.99;100.00
57990;BME280;58373;51.824;5.564;2023-02-03T07:19:03;102358.84;;;6.92;100.00
57990;BME280;58373;51.824;5.564;2023-02-03T07:21:28;102386.50;;;7.09;100.00
57990;BME280;58373;51.824;5.564;2023-02-03T07:23:54;102375.59;;;7.03;100.00
57990;BME280;58373;51.824;5.564;2023-02-03T07:26:19;102396.72;;;7.12;100.00
57990;BME280;58373;51.824;5.564;2023-02-03T07:28:47;102374.19;;;6.96;100.00
57990;BME280;58373;51.824;5.564;2023-02-03T07:31:13;102386.84;;;7.02;100.00
57990;BME280;58373;51.824;5.564;2023-02-03T07:33:38;102404.63;;;7.08;100.00
57990;BME280;58373;51.824;5.564;2023-02-03T07:36:04;102364.38;;;6.83;100.00
57990;BME280;58373;51.824;5.564;2023-02-03T07:38:30;102338.31;;;6.69;100.00
57990;BME280;58373;51.824;5.564;2023-02-03T07:40:56;102372.91;;;6.85;100.00
57990;BME280;58373;51.824;5.564;2023-02-03T07:43:22;102382.84;;;6.95;100.00
57990;BME280;58373;51.824;5.564;2023-02-03T07:45:47;102401.28;;;7.06;100.00
57990;BME280;58373;51.824;5.564;2023-02-03T07:48:13;102413.28;;;7.07;100.00
57990;BME280;58373;51.824;5.564;2023-02-03T07:50:39;102384.88;;;6.86;100.00
57990;BME280;58373;51.824;5.564;2023-02-03T07:53:04;102405.81;;;7.01;100.00
57990;BME280;58373;51.824;5.564;2023-02-03T07:55:30;102423.47;;;7.10;100.00
57990;BME280;58373;51.824;5.564;2023-02-03T07:57:56;102391.59;;;6.90;100.00
57990;BME280;58373;51.824;5.564;2023-02-03T08:00:22;102420.13;;;7.08;100.00
57990;BME280;58373;51.824;5.564;2023-02-03T08:02:48;102354.50;;;6.73;100.00
57990;BME280;58373;51.824;5.564;2023-02-03T08:05:14;102409.81;;;7.08;100.00
57990;BME280;58373;51.824;5.564;2023-02-03T08:07:40;102367.75;;;6.85;100.00
57990;BME280;58373;51.824;5.564;2023-02-03T08:10:06;102386.19;;;6.97;100.00
57990;BME280;58373;51.824;5.564;2023-02-03T08:12:32;102376.22;;;6.87;100.00
57990;BME280;58373;51.824;5.564;2023-02-03T08:14:58;102381.53;;;6.84;100.00
57990;BME280;58373;51.824;5.564;2023-02-03T08:17:23;102410.97;;;7.01;100.00
57990;BME280;58373;51.824;5.564;2023-02-03T08:19:49;102409.31;;;6.98;100.00
57990;BME280;58373;51.824;5.564;2023-02-03T08:22:14;102411.72;;;7.03;100.00
57990;BME280;58373;51.824;5.564;2023-02-03T08:24:43;102397.25;;;6.99;100.00
57990;BME280;58373;51.824;5.564;2023-02-03T08:27:12;102434.38;;;7.16;100.00
57990;BME280;58373;51.824;5.564;2023-02-03T08:29:38;102442.19;;;7.15;100.00
57990;BME280;58373;51.824;5.564;2023-02-03T08:32:03;102448.97;;;7.17;100.00
57990;BME280;58373;51.824;5.564;2023-02-03T08:34:29;102410.31;;;6.96;100.00
57990;BME280;58373;51.824;5.564;2023-02-03T08:36:54;102416.16;;;6.99;100.00
57990;BME280;58373;51.824;5.564;2023-02-03T08:39:19;102418.56;;;7.04;100.00
57990;BME280;58373;51.824;5.564;2023-02-03T08:41:45;102453.81;;;7.25;100.00
57990;BME280;58373;51.824;5.564;2023-02-03T08:44:10;102442.91;;;7.18;100.00
57990;BME280;58373;51.824;5.564;2023-02-03T08:46:35;102422.63;;;7.09;100.00
57990;BME280;58373;51.824;5.564;2023-02-03T08:49:07;102429.28;;;7.15;100.00
57990;BME280;58373;51.824;5.564;2023-02-03T08:51:33;102411.63;;;7.06;100.00
57990;BME280;58373;51.824;5.564;2023-02-03T08:53:58;102424.19;;;7.13;100.00
57990;BME280;58373;51.824;5.564;2023-02-03T08:56:23;102399.84;;;6.99;100.00
57990;BME280;58373;51.824;5.564;2023-02-03T08:58:50;102444.06;;;7.32;100.00
57990;BME280;58373;51.824;5.564;2023-02-03T09:01:15;102424.25;;;7.12;100.00
57990;BME280;58373;51.824;5.564;2023-02-03T09:03:41;102430.19;;;7.14;100.00
57990;BME280;58373;51.824;5.564;2023-02-03T09:06:07;102458.59;;;7.34;100.00
57990;BME280;58373;51.824;5.564;2023-02-03T09:08:33;102430.06;;;7.17;100.00
57990;BME280;58373;51.824;5.564;2023-02-03T09:10:58;102408.06;;;7.08;100.00
57990;BME280;58373;51.824;5.564;2023-02-03T09:13:24;102457.03;;;7.30;100.00
57990;BME280;58373;51.824;5.564;2023-02-03T09:15:49;102462.31;;;7.27;100.00
57990;BME280;58373;51.824;5.564;2023-02-03T09:18:15;102446.97;;;7.24;100.00
57990;BME280;58373;51.824;5.564;2023-02-03T09:20:40;102437.66;;;7.20;100.00
57990;BME280;58373;51.824;5.564;2023-02-03T09:23:05;102459.03;;;7.24;100.00
57990;BME280;58373;51.824;5.564;2023-02-03T09:25:32;102463.88;;;7.31;100.00
57990;BME280;58373;51.824;5.564;2023-02-03T09:27:57;102483.09;;;7.44;100.00
57990;BME280;58373;51.824;5.564;2023-02-03T09:30:22;102492.41;;;7.49;100.00
57990;BME280;58373;51.824;5.564;2023-02-03T09:32:51;102438.69;;;7.16;100.00
57990;BME280;58373;51.824;5.564;2023-02-03T09:35:19;102481.50;;;7.42;100.00
57990;BME280;58373;51.824;5.564;2023-02-03T09:37:45;102473.09;;;7.37;100.00
57990;BME280;58373;51.824;5.564;2023-02-03T09:40:19;102468.91;;;7.34;100.00
57990;BME280;58373;51.824;5.564;2023-02-03T09:43:00;102488.91;;;7.50;100.00
57990;BME280;58373;51.824;5.564;2023-02-03T09:45:29;102477.16;;;7.42;100.00
57990;BME280;58373;51.824;5.564;2023-02-03T09:47:59;102457.88;;;7.31;100.00
57990;BME280;58373;51.824;5.564;2023-02-03T09:50:31;102467.81;;;7.40;100.00
57990;BME280;58373;51.824;5.564;2023-02-03T09:52:57;102453.16;;;7.40;100.00
57990;BME280;58373;51.824;5.564;2023-02-03T09:55:30;102443.09;;;7.34;100.00
57990;BME280;58373;51.824;5.564;2023-02-03T09:58:04;102498.97;;;7.56;100.00
57990;BME280;58373;51.824;5.564;2023-02-03T10:00:49;102472.72;;;7.46;100.00
57990;BME280;58373;51.824;5.564;2023-02-03T10:08:44;102491.88;;;7.61;100.00
57990;BME280;58373;51.824;5.564;2023-02-03T10:11:25;102487.81;;;7.55;100.00
57990;BME280;58373;51.824;5.564;2023-02-03T10:19:24;102481.44;;;7.43;100.00
57990;BME280;58373;51.824;5.564;2023-02-03T10:21:54;102504.59;;;7.65;100.00
57990;BME280;58373;51.824;5.564;2023-02-03T10:27:07;102491.41;;;7.51;100.00
57990;BME280;58373;51.824;5.564;2023-02-03T10:29:38;102475.09;;;7.51;100.00
57990;BME280;58373;51.824;5.564;2023-02-03T10:32:10;102494.53;;;7.59;100.00
57990;BME280;58373;51.824;5.564;2023-02-03T10:34:37;102481.81;;;7.55;100.00
57990;BME280;58373;51.824;5.564;2023-02-03T10:39:48;102503.34;;;7.74;100.00
57990;BME280;58373;51.824;5.564;2023-02-03T10:42:15;102480.72;;;7.60;100.00
57990;BME280;58373;51.824;5.564;2023-02-03T10:44:46;102496.78;;;7.67;100.00
57990;BME280;58373;51.824;5.564;2023-02-03T10:47:37;102522.81;;;7.83;100.00
57990;BME280;58373;51.824;5.564;2023-02-03T10:50:15;102481.69;;;7.58;100.00
57990;BME280;58373;51.824;5.564;2023-02-03T10:52:41;102471.47;;;7.55;100.00
57990;BME280;58373;51.824;5.564;2023-02-03T10:55:27;102485.75;;;7.63;100.00
57990;BME280;58373;51.824;5.564;2023-02-03T10:57:54;102523.78;;;7.80;100.00
57990;BME280;58373;51.824;5.564;2023-02-03T11:00:27;102539.84;;;7.87;100.00
57990;BME280;58373;51.824;5.564;2023-02-03T11:03:06;102541.59;;;7.86;100.00
57990;BME280;58373;51.824;5.564;2023-02-03T11:05:33;102527.84;;;7.86;100.00
57990;BME280;58373;51.824;5.564;2023-02-03T11:08:01;102505.06;;;7.75;100.00
57990;BME280;58373;51.824;5.564;2023-02-03T11:10:33;102535.75;;;8.02;100.00
57990;BME280;58373;51.824;5.564;2023-02-03T11:13:19;102523.91;;;7.97;100.00
57990;BME280;58373;51.824;5.564;2023-02-03T11:15:55;102509.16;;;7.99;100.00
57990;BME280;58373;51.824;5.564;2023-02-03T11:18:47;102535.03;;;8.18;100.00
57990;BME280;58373;51.824;5.564;2023-02-03T11:21:20;102528.75;;;8.24;100.00
57990;BME280;58373;51.824;5.564;2023-02-03T11:26:18;102504.84;;;8.19;100.00
57990;BME280;58373;51.824;5.564;2023-02-03T11:28:46;102510.38;;;8.30;100.00
57990;BME280;58373;51.824;5.564;2023-02-03T11:31:17;102524.84;;;8.34;100.00
57990;BME280;58373;51.824;5.564;2023-02-03T11:33:50;102516.63;;;8.45;100.00
57990;BME280;58373;51.824;5.564;2023-02-03T11:36:17;102518.88;;;8.52;100.00
57990;BME280;58373;51.824;5.564;2023-02-03T11:38:43;102506.00;;;8.51;100.00
57990;BME280;58373;51.824;5.564;2023-02-03T11:41:17;102504.63;;;8.44;100.00
57990;BME280;58373;51.824;5.564;2023-02-03T11:43:43;102498.63;;;8.43;100.00
57990;BME280;58373;51.824;5.564;2023-02-03T11:46:08;102529.28;;;8.70;100.00
57990;BME280;58373;51.824;5.564;2023-02-03T11:48:35;102517.88;;;8.74;100.00
57990;BME280;58373;51.824;5.564;2023-02-03T11:56:45;102527.94;;;8.80;100.00
57990;BME280;58373;51.824;5.564;2023-02-03T12:10:26;102488.09;;;8.65;99.46
57990;BME280;58373;51.824;5.564;2023-02-03T12:23:16;102518.06;;;8.88;98.33
57990;BME280;58373;51.824;5.564;2023-02-03T12:25:59;102556.31;;;9.00;98.40
57990;BME280;58373;51.824;5.564;2023-02-03T12:28:49;102550.28;;;9.00;98.60
57990;BME280;58373;51.824;5.564;2023-02-03T12:33:59;102557.66;;;8.90;98.63
57990;BME280;58373;51.824;5.564;2023-02-03T12:36:28;102526.25;;;8.79;97.60
57990;BME280;58373;51.824;5.564;2023-02-03T12:39:11;102561.63;;;8.97;98.36
57990;BME280;58373;51.824;5.564;2023-02-03T12:41:45;102548.50;;;8.83;98.34
57990;BME280;58373;51.824;5.564;2023-02-03T12:44:23;102523.06;;;8.74;98.10
57990;BME280;58373;51.824;5.564;2023-02-03T12:47:20;102583.72;;;9.04;97.90
57990;BME280;58373;51.824;5.564;2023-02-03T12:49:53;102541.41;;;8.87;97.99
57990;BME280;58373;51.824;5.564;2023-02-03T12:52:42;102549.59;;;8.96;97.89
57990;BME280;58373;51.824;5.564;2023-02-03T12:57:45;102576.84;;;9.03;97.91
57990;BME280;58373;51.824;5.564;2023-02-03T13:00:26;102583.66;;;9.06;98.00
57990;BME280;58373;51.824;5.564;2023-02-03T13:06:01;102580.94;;;8.90;99.12
57990;BME280;58373;51.824;5.564;2023-02-03T13:08:35;102571.16;;;8.78;99.01
57990;BME280;58373;51.824;5.564;2023-02-03T13:11:14;102550.88;;;8.69;99.32
57990;BME280;58373;51.824;5.564;2023-02-03T13:13:48;102586.25;;;8.87;98.85
57990;BME280;58373;51.824;5.564;2023-02-03T13:16:17;102555.94;;;8.72;98.14
57990;BME280;58373;51.824;5.564;2023-02-03T13:18:48;102558.16;;;8.61;99.14
57990;BME280;58373;51.824;5.564;2023-02-03T13:21:16;102579.25;;;8.70;98.77
57990;BME280;58373;51.824;5.564;2023-02-03T13:23:42;102577.03;;;8.63;98.95
57990;BME280;58373;51.824;5.564;2023-02-03T13:26:35;102605.63;;;8.78;99.17
57990;BME280;58373;51.824;5.564;2023-02-03T13:29:44;102607.84;;;8.86;99.79
57990;BME280;58373;51.824;5.564;2023-02-03T13:40:16;102615.53;;;8.69;100.00
57990;BME280;58373;51.824;5.564;2023-02-03T13:42:46;102637.97;;;8.49;100.00
57990;BME280;58373;51.824;5.564;2023-02-03T13:45:31;102601.06;;;8.05;100.00
57990;BME280;58373;51.824;5.564;2023-02-03T13:48:07;102613.59;;;7.94;100.00
57990;BME280;58373;51.824;5.564;2023-02-03T13:50:35;102600.22;;;7.64;100.00
57990;BME280;58373;51.824;5.564;2023-02-03T13:53:03;102606.50;;;7.57;100.00
57990;BME280;58373;51.824;5.564;2023-02-03T13:55:38;102629.28;;;7.69;100.00
57990;BME280;58373;51.824;5.564;2023-02-03T13:58:06;102627.97;;;7.59;100.00
57990;BME280;58373;51.824;5.564;2023-02-03T14:05:48;102617.50;;;7.62;100.00
57990;BME280;58373;51.824;5.564;2023-02-03T14:16:46;102624.72;;;7.76;100.00
57990;BME280;58373;51.824;5.564;2023-02-03T14:21:54;102589.75;;;7.67;100.00
57990;BME280;58373;51.824;5.564;2023-02-03T14:24:22;102627.53;;;7.90;100.00
57990;BME280;58373;51.824;5.564;2023-02-03T14:26:51;102623.22;;;7.90;100.00
57990;BME280;58373;51.824;5.564;2023-02-03T14:29:29;102631.75;;;7.92;100.00
57990;BME280;58373;51.824;5.564;2023-02-03T14:32:00;102640.28;;;7.94;100.00
57990;BME280;58373;51.824;5.564;2023-02-03T14:37:21;102655.53;;;8.01;100.00